Aviation Digital Data Service (ADDS)

Output produced by METARs form (1801 UTC 21 September 2019)
found at http://aviationweather.gov/metar/data/
 
METAR text: KJOT 211755Z AUTO 20015G21KT 10SM SCT021 BKN050 OVC120 26/23 A3009 RMK AO2 LTG DSNT W AND NW 60001 T02600227 10269 20226
Conditions at: KJOT (JOLIET , IL, US) observed 1755 UTC 21 September 2019
Temperature: 26.0°C (79°F)
Dewpoint: 22.7°C (73°F) [RH = 82%]
Pressure (altimeter): 30.09 inches Hg (1019.0 mb)
Winds: from the SSW (200 degrees) at 17 MPH (15 knots; 7.7 m/s)
gusting to 24 MPH (21 knots; 10.8 m/s)
Visibility: 10 or more miles (16+ km)
Ceiling: 5000 feet AGL
Clouds: scattered clouds at 2100 feet AGL
broken clouds at 5000 feet AGL
overcast cloud deck at 12000 feet AGL
Weather: automated observation with no human augmentation;
there may or may not be significant weather present at this time